sensor_id;sensor_type;location;lat;lon;timestamp;P1;durP1;ratioP1;P2;durP2;ratioP2
54679;SDS011;40578;53.178;5.846;2023-02-15T00:01:20;343.37;;;46.10;;
54679;SDS011;40578;53.178;5.846;2023-02-15T00:03:49;197.17;;;42.67;;
54679;SDS011;40578;53.178;5.846;2023-02-15T00:06:15;286.97;;;43.97;;
54679;SDS011;40578;53.178;5.846;2023-02-15T00:08:41;242.00;;;42.30;;
54679;SDS011;40578;53.178;5.846;2023-02-15T00:11:07;206.13;;;41.27;;
54679;SDS011;40578;53.178;5.846;2023-02-15T00:13:35;148.80;;;39.85;;
54679;SDS011;40578;53.178;5.846;2023-02-15T00:16:05;222.25;;;39.97;;
54679;SDS011;40578;53.178;5.846;2023-02-15T00:18:32;178.30;;;41.10;;
54679;SDS011;40578;53.178;5.846;2023-02-15T00:20:58;242.02;;;42.47;;
54679;SDS011;40578;53.178;5.846;2023-02-15T00:23:28;197.13;;;39.37;;
54679;SDS011;40578;53.178;5.846;2023-02-15T00:26:07;137.70;;;37.33;;
54679;SDS011;40578;53.178;5.846;2023-02-15T00:28:34;168.97;;;39.77;;
54679;SDS011;40578;53.178;5.846;2023-02-15T00:31:07;179.23;;;38.07;;
54679;SDS011;40578;53.178;5.846;2023-02-15T00:33:34;299.77;;;42.43;;
54679;SDS011;40578;53.178;5.846;2023-02-15T00:36:01;268.38;;;40.97;;
54679;SDS011;40578;53.178;5.846;2023-02-15T00:38:28;260.63;;;39.03;;
54679;SDS011;40578;53.178;5.846;2023-02-15T00:40:54;322.67;;;43.17;;
54679;SDS011;40578;53.178;5.846;2023-02-15T00:43:21;277.10;;;38.43;;
54679;SDS011;40578;53.178;5.846;2023-02-15T00:45:47;209.27;;;38.42;;
54679;SDS011;40578;53.178;5.846;2023-02-15T00:48:13;235.93;;;40.72;;
54679;SDS011;40578;53.178;5.846;2023-02-15T00:50:39;235.03;;;38.40;;
54679;SDS011;40578;53.178;5.846;2023-02-15T00:53:04;298.23;;;40.40;;
54679;SDS011;40578;53.178;5.846;2023-02-15T00:55:30;163.70;;;38.40;;
54679;SDS011;40578;53.178;5.846;2023-02-15T00:57:56;220.80;;;37.43;;
54679;SDS011;40578;53.178;5.846;2023-02-15T01:00:21;122.37;;;35.23;;
54679;SDS011;40578;53.178;5.846;2023-02-15T01:02:47;226.67;;;37.60;;
54679;SDS011;40578;53.178;5.846;2023-02-15T01:05:13;148.20;;;38.37;;
54679;SDS011;40578;53.178;5.846;2023-02-15T01:07:38;129.57;;;35.23;;
54679;SDS011;40578;53.178;5.846;2023-02-15T01:10:05;174.03;;;35.10;;
54679;SDS011;40578;53.178;5.846;2023-02-15T01:12:31;132.37;;;34.53;;
54679;SDS011;40578;53.178;5.846;2023-02-15T01:14:57;198.43;;;37.53;;
54679;SDS011;40578;53.178;5.846;2023-02-15T01:17:23;237.30;;;36.90;;
54679;SDS011;40578;53.178;5.846;2023-02-15T01:19:49;171.53;;;34.73;;
54679;SDS011;40578;53.178;5.846;2023-02-15T01:22:16;201.37;;;38.13;;
54679;SDS011;40578;53.178;5.846;2023-02-15T01:27:09;172.70;;;35.23;;
54679;SDS011;40578;53.178;5.846;2023-02-15T01:29:35;147.55;;;34.25;;
54679;SDS011;40578;53.178;5.846;2023-02-15T01:32:00;200.93;;;38.47;;
54679;SDS011;40578;53.178;5.846;2023-02-15T01:34:26;183.00;;;38.07;;
54679;SDS011;40578;53.178;5.846;2023-02-15T01:36:53;173.10;;;35.67;;
54679;SDS011;40578;53.178;5.846;2023-02-15T01:39:19;123.87;;;34.30;;
54679;SDS011;40578;53.178;5.846;2023-02-15T01:41:44;155.80;;;35.80;;
54679;SDS011;40578;53.178;5.846;2023-02-15T01:47:07;191.37;;;37.07;;
54679;SDS011;40578;53.178;5.846;2023-02-15T01:49:35;211.43;;;37.33;;
54679;SDS011;40578;53.178;5.846;2023-02-15T01:52:01;140.77;;;34.88;;
54679;SDS011;40578;53.178;5.846;2023-02-15T01:54:28;271.75;;;39.10;;
54679;SDS011;40578;53.178;5.846;2023-02-15T01:57:01;177.80;;;34.67;;
54679;SDS011;40578;53.178;5.846;2023-02-15T01:59:30;162.30;;;34.47;;
54679;SDS011;40578;53.178;5.846;2023-02-15T02:01:58;147.75;;;34.03;;
54679;SDS011;40578;53.178;5.846;2023-02-15T02:04:38;144.93;;;35.10;;
54679;SDS011;40578;53.178;5.846;2023-02-15T02:07:08;169.60;;;34.20;;
54679;SDS011;40578;53.178;5.846;2023-02-15T02:09:37;182.50;;;35.77;;
54679;SDS011;40578;53.178;5.846;2023-02-15T02:12:03;139.63;;;35.97;;
54679;SDS011;40578;53.178;5.846;2023-02-15T02:14:29;176.25;;;35.75;;
54679;SDS011;40578;53.178;5.846;2023-02-15T02:17:07;148.90;;;34.87;;
54679;SDS011;40578;53.178;5.846;2023-02-15T02:22:54;179.50;;;34.93;;
54679;SDS011;40578;53.178;5.846;2023-02-15T02:25:45;157.80;;;34.90;;
54679;SDS011;40578;53.178;5.846;2023-02-15T02:34:16;146.13;;;34.70;;
54679;SDS011;40578;53.178;5.846;2023-02-15T02:42:59;196.57;;;34.92;;
54679;SDS011;40578;53.178;5.846;2023-02-15T02:45:40;135.88;;;33.08;;
54679;SDS011;40578;53.178;5.846;2023-02-15T02:48:13;128.57;;;34.43;;
54679;SDS011;40578;53.178;5.846;2023-02-15T02:50:43;181.13;;;36.07;;
54679;SDS011;40578;53.178;5.846;2023-02-15T02:53:09;134.50;;;33.20;;
54679;SDS011;40578;53.178;5.846;2023-02-15T02:55:46;100.72;;;32.95;;
54679;SDS011;40578;53.178;5.846;2023-02-15T02:58:19;83.00;;;32.67;;
54679;SDS011;40578;53.178;5.846;2023-02-15T03:00:59;93.95;;;33.65;;
54679;SDS011;40578;53.178;5.846;2023-02-15T03:06:07;82.07;;;32.43;;
54679;SDS011;40578;53.178;5.846;2023-02-15T03:08:38;64.47;;;31.73;;
54679;SDS011;40578;53.178;5.846;2023-02-15T03:11:08;50.10;;;30.27;;
54679;SDS011;40578;53.178;5.846;2023-02-15T03:13:35;76.43;;;31.73;;
54679;SDS011;40578;53.178;5.846;2023-02-15T03:16:01;48.63;;;30.63;;
54679;SDS011;40578;53.178;5.846;2023-02-15T03:18:48;52.63;;;32.30;;
54679;SDS011;40578;53.178;5.846;2023-02-15T03:21:23;45.80;;;31.57;;
54679;SDS011;40578;53.178;5.846;2023-02-15T03:23:57;74.37;;;33.83;;
54679;SDS011;40578;53.178;5.846;2023-02-15T03:26:29;101.63;;;33.13;;
54679;SDS011;40578;53.178;5.846;2023-02-15T03:28:57;108.03;;;33.20;;
54679;SDS011;40578;53.178;5.846;2023-02-15T03:31:26;115.67;;;33.73;;
54679;SDS011;40578;53.178;5.846;2023-02-15T03:33:57;205.87;;;36.77;;
54679;SDS011;40578;53.178;5.846;2023-02-15T03:44:47;213.60;;;36.73;;
54679;SDS011;40578;53.178;5.846;2023-02-15T03:47:16;247.30;;;40.23;;
54679;SDS011;40578;53.178;5.846;2023-02-15T03:49:48;293.43;;;43.13;;
54679;SDS011;40578;53.178;5.846;2023-02-15T03:52:54;172.93;;;35.00;;
54679;SDS011;40578;53.178;5.846;2023-02-15T03:55:22;179.63;;;37.27;;
54679;SDS011;40578;53.178;5.846;2023-02-15T03:57:47;183.23;;;37.47;;
54679;SDS011;40578;53.178;5.846;2023-02-15T04:00:32;316.47;;;41.30;;
54679;SDS011;40578;53.178;5.846;2023-02-15T04:05:56;219.83;;;39.00;;
54679;SDS011;40578;53.178;5.846;2023-02-15T04:08:21;318.80;;;42.87;;
54679;SDS011;40578;53.178;5.846;2023-02-15T04:11:07;235.27;;;39.67;;
54679;SDS011;40578;53.178;5.846;2023-02-15T04:13:33;236.40;;;39.73;;
54679;SDS011;40578;53.178;5.846;2023-02-15T04:15:58;185.50;;;38.23;;
54679;SDS011;40578;53.178;5.846;2023-02-15T04:18:40;125.83;;;37.10;;
54679;SDS011;40578;53.178;5.846;2023-02-15T04:21:26;156.93;;;38.60;;
54679;SDS011;40578;53.178;5.846;2023-02-15T04:24:14;123.40;;;37.33;;
54679;SDS011;40578;53.178;5.846;2023-02-15T04:26:59;212.13;;;40.20;;
54679;SDS011;40578;53.178;5.846;2023-02-15T04:29:26;156.55;;;38.92;;
54679;SDS011;40578;53.178;5.846;2023-02-15T04:31:52;154.47;;;38.60;;
54679;SDS011;40578;53.178;5.846;2023-02-15T04:34:19;184.80;;;37.67;;
54679;SDS011;40578;53.178;5.846;2023-02-15T04:36:45;191.10;;;39.63;;
54679;SDS011;40578;53.178;5.846;2023-02-15T04:39:14;162.37;;;38.73;;
54679;SDS011;40578;53.178;5.846;2023-02-15T04:41:41;158.13;;;39.63;;
54679;SDS011;40578;53.178;5.846;2023-02-15T04:44:07;187.25;;;39.55;;
54679;SDS011;40578;53.178;5.846;2023-02-15T04:46:33;177.38;;;39.50;;
54679;SDS011;40578;53.178;5.846;2023-02-15T04:48:59;195.27;;;42.83;;
54679;SDS011;40578;53.178;5.846;2023-02-15T04:51:25;134.50;;;38.17;;
54679;SDS011;40578;53.178;5.846;2023-02-15T04:53:50;161.70;;;40.17;;
54679;SDS011;40578;53.178;5.846;2023-02-15T04:56:20;130.50;;;39.93;;
54679;SDS011;40578;53.178;5.846;2023-02-15T04:58:46;143.63;;;39.53;;
54679;SDS011;40578;53.178;5.846;2023-02-15T05:01:12;132.97;;;38.13;;
54679;SDS011;40578;53.178;5.846;2023-02-15T05:03:37;218.52;;;41.75;;
54679;SDS011;40578;53.178;5.846;2023-02-15T05:06:03;196.57;;;40.50;;
54679;SDS011;40578;53.178;5.846;2023-02-15T05:08:29;150.82;;;39.78;;
54679;SDS011;40578;53.178;5.846;2023-02-15T05:10:55;149.90;;;39.53;;
54679;SDS011;40578;53.178;5.846;2023-02-15T05:13:22;247.07;;;40.65;;
54679;SDS011;40578;53.178;5.846;2023-02-15T05:15:48;200.50;;;40.95;;
54679;SDS011;40578;53.178;5.846;2023-02-15T05:18:16;232.03;;;41.70;;
54679;SDS011;40578;53.178;5.846;2023-02-15T05:23:07;195.40;;;39.23;;
54679;SDS011;40578;53.178;5.846;2023-02-15T05:25:33;214.23;;;40.90;;
54679;SDS011;40578;53.178;5.846;2023-02-15T05:28:17;287.40;;;45.67;;
54679;SDS011;40578;53.178;5.846;2023-02-15T05:33:32;244.53;;;43.33;;
54679;SDS011;40578;53.178;5.846;2023-02-15T05:35:58;197.80;;;42.15;;
54679;SDS011;40578;53.178;5.846;2023-02-15T05:38:24;238.25;;;43.70;;
54679;SDS011;40578;53.178;5.846;2023-02-15T05:40:50;335.80;;;47.80;;
54679;SDS011;40578;53.178;5.846;2023-02-15T05:45:51;332.30;;;46.97;;
54679;SDS011;40578;53.178;5.846;2023-02-15T05:48:19;331.87;;;48.60;;
54679;SDS011;40578;53.178;5.846;2023-02-15T05:50:46;461.87;;;54.17;;
54679;SDS011;40578;53.178;5.846;2023-02-15T05:53:21;415.80;;;53.77;;
54679;SDS011;40578;53.178;5.846;2023-02-15T05:55:46;403.03;;;57.00;;
54679;SDS011;40578;53.178;5.846;2023-02-15T05:58:12;289.33;;;50.73;;
54679;SDS011;40578;53.178;5.846;2023-02-15T06:00:37;344.70;;;53.07;;
54679;SDS011;40578;53.178;5.846;2023-02-15T06:03:03;320.60;;;54.40;;
54679;SDS011;40578;53.178;5.846;2023-02-15T06:05:29;170.17;;;45.87;;
54679;SDS011;40578;53.178;5.846;2023-02-15T06:07:54;237.73;;;51.13;;
54679;SDS011;40578;53.178;5.846;2023-02-15T06:10:20;330.80;;;55.03;;
54679;SDS011;40578;53.178;5.846;2023-02-15T06:12:46;399.57;;;57.03;;
54679;SDS011;40578;53.178;5.846;2023-02-15T06:15:11;350.07;;;52.47;;
54679;SDS011;40578;53.178;5.846;2023-02-15T06:17:37;211.47;;;49.43;;
54679;SDS011;40578;53.178;5.846;2023-02-15T06:20:03;300.23;;;55.10;;
54679;SDS011;40578;53.178;5.846;2023-02-15T06:22:29;421.40;;;61.25;;
54679;SDS011;40578;53.178;5.846;2023-02-15T06:24:56;263.90;;;52.10;;
54679;SDS011;40578;53.178;5.846;2023-02-15T06:27:21;215.77;;;51.45;;
54679;SDS011;40578;53.178;5.846;2023-02-15T06:29:47;342.07;;;58.67;;
54679;SDS011;40578;53.178;5.846;2023-02-15T06:32:12;219.03;;;52.00;;
54679;SDS011;40578;53.178;5.846;2023-02-15T06:34:38;379.13;;;57.40;;
54679;SDS011;40578;53.178;5.846;2023-02-15T06:37:03;314.10;;;57.23;;
54679;SDS011;40578;53.178;5.846;2023-02-15T06:39:29;452.60;;;60.90;;
54679;SDS011;40578;53.178;5.846;2023-02-15T06:41:55;335.17;;;53.73;;
54679;SDS011;40578;53.178;5.846;2023-02-15T06:44:20;491.77;;;67.53;;
54679;SDS011;40578;53.178;5.846;2023-02-15T06:46:46;531.30;;;66.93;;
54679;SDS011;40578;53.178;5.846;2023-02-15T06:49:11;517.33;;;65.00;;
54679;SDS011;40578;53.178;5.846;2023-02-15T06:51:37;621.40;;;72.70;;
54679;SDS011;40578;53.178;5.846;2023-02-15T06:54:02;370.33;;;59.90;;
54679;SDS011;40578;53.178;5.846;2023-02-15T06:56:29;358.37;;;57.13;;
54679;SDS011;40578;53.178;5.846;2023-02-15T06:58:54;328.10;;;58.03;;
54679;SDS011;40578;53.178;5.846;2023-02-15T07:01:20;435.70;;;63.60;;
54679;SDS011;40578;53.178;5.846;2023-02-15T07:03:46;195.17;;;52.80;;
54679;SDS011;40578;53.178;5.846;2023-02-15T07:06:11;358.33;;;58.40;;
54679;SDS011;40578;53.178;5.846;2023-02-15T07:08:37;320.27;;;60.20;;
54679;SDS011;40578;53.178;5.846;2023-02-15T07:13:48;199.13;;;51.43;;
54679;SDS011;40578;53.178;5.846;2023-02-15T07:16:14;306.70;;;59.67;;
54679;SDS011;40578;53.178;5.846;2023-02-15T07:18:40;308.43;;;58.10;;
54679;SDS011;40578;53.178;5.846;2023-02-15T07:21:06;199.33;;;52.77;;
54679;SDS011;40578;53.178;5.846;2023-02-15T07:23:37;306.83;;;57.17;;
54679;SDS011;40578;53.178;5.846;2023-02-15T07:26:05;421.70;;;68.23;;
54679;SDS011;40578;53.178;5.846;2023-02-15T07:28:31;382.88;;;65.18;;
54679;SDS011;40578;53.178;5.846;2023-02-15T07:30:57;201.65;;;52.85;;
54679;SDS011;40578;53.178;5.846;2023-02-15T07:33:23;235.17;;;54.67;;
54679;SDS011;40578;53.178;5.846;2023-02-15T07:35:53;565.53;;;73.47;;
54679;SDS011;40578;53.178;5.846;2023-02-15T07:38:22;223.60;;;53.77;;
54679;SDS011;40578;53.178;5.846;2023-02-15T07:40:48;244.48;;;57.08;;
54679;SDS011;40578;53.178;5.846;2023-02-15T07:43:13;339.67;;;60.00;;
54679;SDS011;40578;53.178;5.846;2023-02-15T07:45:39;244.00;;;57.90;;
54679;SDS011;40578;53.178;5.846;2023-02-15T07:48:05;309.93;;;60.13;;
54679;SDS011;40578;53.178;5.846;2023-02-15T07:50:31;310.17;;;60.92;;
54679;SDS011;40578;53.178;5.846;2023-02-15T07:52:57;151.85;;;53.90;;
54679;SDS011;40578;53.178;5.846;2023-02-15T07:55:23;116.43;;;51.83;;
54679;SDS011;40578;53.178;5.846;2023-02-15T07:57:49;157.23;;;56.72;;
54679;SDS011;40578;53.178;5.846;2023-02-15T08:00:16;140.02;;;56.35;;
54679;SDS011;40578;53.178;5.846;2023-02-15T08:02:48;117.43;;;53.63;;
54679;SDS011;40578;53.178;5.846;2023-02-15T08:05:35;143.27;;;56.53;;
54679;SDS011;40578;53.178;5.846;2023-02-15T08:08:00;125.68;;;54.50;;
54679;SDS011;40578;53.178;5.846;2023-02-15T08:10:26;123.73;;;54.07;;
54679;SDS011;40578;53.178;5.846;2023-02-15T08:13:12;144.50;;;57.80;;
54679;SDS011;40578;53.178;5.846;2023-02-15T08:15:37;148.83;;;57.30;;
54679;SDS011;40578;53.178;5.846;2023-02-15T08:18:03;141.33;;;57.17;;
54679;SDS011;40578;53.178;5.846;2023-02-15T08:20:29;123.33;;;55.10;;
54679;SDS011;40578;53.178;5.846;2023-02-15T08:22:54;114.83;;;53.70;;
54679;SDS011;40578;53.178;5.846;2023-02-15T08:25:20;131.43;;;57.00;;
54679;SDS011;40578;53.178;5.846;2023-02-15T08:27:45;135.90;;;60.17;;
54679;SDS011;40578;53.178;5.846;2023-02-15T08:30:11;131.73;;;56.20;;
54679;SDS011;40578;53.178;5.846;2023-02-15T08:32:39;142.43;;;58.73;;
54679;SDS011;40578;53.178;5.846;2023-02-15T08:35:04;137.47;;;58.00;;
54679;SDS011;40578;53.178;5.846;2023-02-15T08:37:30;145.77;;;60.13;;
54679;SDS011;40578;53.178;5.846;2023-02-15T08:39:56;147.97;;;63.03;;
54679;SDS011;40578;53.178;5.846;2023-02-15T08:42:21;157.70;;;61.00;;
54679;SDS011;40578;53.178;5.846;2023-02-15T08:44:47;161.23;;;63.30;;
54679;SDS011;40578;53.178;5.846;2023-02-15T08:47:15;162.27;;;63.53;;
54679;SDS011;40578;53.178;5.846;2023-02-15T08:49:41;164.20;;;64.80;;
54679;SDS011;40578;53.178;5.846;2023-02-15T08:52:06;151.17;;;62.97;;
54679;SDS011;40578;53.178;5.846;2023-02-15T08:54:32;156.67;;;59.57;;
54679;SDS011;40578;53.178;5.846;2023-02-15T08:56:58;146.67;;;59.43;;
54679;SDS011;40578;53.178;5.846;2023-02-15T08:59:24;147.40;;;58.20;;
54679;SDS011;40578;53.178;5.846;2023-02-15T09:01:52;152.43;;;58.97;;
54679;SDS011;40578;53.178;5.846;2023-02-15T09:04:18;153.32;;;63.88;;
54679;SDS011;40578;53.178;5.846;2023-02-15T09:06:46;163.82;;;62.17;;
54679;SDS011;40578;53.178;5.846;2023-02-15T09:09:13;142.53;;;57.23;;
54679;SDS011;40578;53.178;5.846;2023-02-15T09:11:39;160.43;;;64.40;;
54679;SDS011;40578;53.178;5.846;2023-02-15T09:14:08;158.38;;;63.58;;
54679;SDS011;40578;53.178;5.846;2023-02-15T09:16:38;162.82;;;64.05;;
54679;SDS011;40578;53.178;5.846;2023-02-15T09:19:05;149.83;;;60.90;;
54679;SDS011;40578;53.178;5.846;2023-02-15T09:21:32;149.45;;;62.85;;
54679;SDS011;40578;53.178;5.846;2023-02-15T09:24:02;161.10;;;63.65;;
54679;SDS011;40578;53.178;5.846;2023-02-15T09:26:33;156.82;;;63.55;;
54679;SDS011;40578;53.178;5.846;2023-02-15T09:29:00;159.45;;;65.68;;
54679;SDS011;40578;53.178;5.846;2023-02-15T09:31:29;159.18;;;62.08;;
54679;SDS011;40578;53.178;5.846;2023-02-15T09:33:57;158.02;;;66.53;;
54679;SDS011;40578;53.178;5.846;2023-02-15T09:36:30;160.55;;;62.85;;
54679;SDS011;40578;53.178;5.846;2023-02-15T09:39:07;166.50;;;66.25;;
54679;SDS011;40578;53.178;5.846;2023-02-15T09:56:06;157.18;;;65.47;;
54679;SDS011;40578;53.178;5.846;2023-02-15T10:06:47;143.43;;;66.55;;
54679;SDS011;40578;53.178;5.846;2023-02-15T10:18:10;147.73;;;63.65;;
54679;SDS011;40578;53.178;5.846;2023-02-15T10:28:57;150.18;;;65.10;;
54679;SDS011;40578;53.178;5.846;2023-02-15T10:56:23;137.07;;;64.75;;
54679;SDS011;40578;53.178;5.846;2023-02-15T11:06:43;132.95;;;66.90;;
54679;SDS011;40578;53.178;5.846;2023-02-15T11:09:16;140.73;;;66.32;;
54679;SDS011;40578;53.178;5.846;2023-02-15T11:11:48;123.65;;;64.00;;
54679;SDS011;40578;53.178;5.846;2023-02-15T11:14:18;124.25;;;62.40;;
54679;SDS011;40578;53.178;5.846;2023-02-15T11:16:47;124.28;;;62.42;;
54679;SDS011;40578;53.178;5.846;2023-02-15T11:19:24;119.97;;;60.83;;
54679;SDS011;40578;53.178;5.846;2023-02-15T11:21:59;117.40;;;62.42;;
54679;SDS011;40578;53.178;5.846;2023-02-15T11:24:29;118.53;;;63.22;;
54679;SDS011;40578;53.178;5.846;2023-02-15T11:32:13;112.00;;;61.35;;
54679;SDS011;40578;53.178;5.846;2023-02-15T11:34:56;107.03;;;58.22;;
54679;SDS011;40578;53.178;5.846;2023-02-15T11:37:29;98.30;;;55.70;;
54679;SDS011;40578;53.178;5.846;2023-02-15T11:40:21;97.45;;;54.35;;
54679;SDS011;40578;53.178;5.846;2023-02-15T11:42:58;90.03;;;53.33;;
54679;SDS011;40578;53.178;5.846;2023-02-15T11:45:29;87.00;;;49.65;;
54679;SDS011;40578;53.178;5.846;2023-02-15T11:47:57;82.82;;;48.17;;
54679;SDS011;40578;53.178;5.846;2023-02-15T11:50:25;81.15;;;47.50;;
54679;SDS011;40578;53.178;5.846;2023-02-15T11:52:54;74.13;;;45.67;;
54679;SDS011;40578;53.178;5.846;2023-02-15T11:55:24;68.25;;;41.22;;
54679;SDS011;40578;53.178;5.846;2023-02-15T11:57:59;67.72;;;40.10;;
54679;SDS011;40578;53.178;5.846;2023-02-15T12:00:37;68.57;;;42.97;;
54679;SDS011;40578;53.178;5.846;2023-02-15T12:03:11;68.43;;;41.60;;
54679;SDS011;40578;53.178;5.846;2023-02-15T12:05:49;68.80;;;41.28;;
54679;SDS011;40578;53.178;5.846;2023-02-15T12:08:21;70.00;;;42.13;;
54679;SDS011;40578;53.178;5.846;2023-02-15T12:10:53;70.60;;;40.80;;
54679;SDS011;40578;53.178;5.846;2023-02-15T12:13:24;63.85;;;40.40;;
54679;SDS011;40578;53.178;5.846;2023-02-15T12:15:51;66.00;;;39.73;;
54679;SDS011;40578;53.178;5.846;2023-02-15T12:18:38;67.57;;;41.28;;
54679;SDS011;40578;53.178;5.846;2023-02-15T12:21:07;68.95;;;40.80;;
54679;SDS011;40578;53.178;5.846;2023-02-15T12:23:40;64.85;;;39.45;;
54679;SDS011;40578;53.178;5.846;2023-02-15T12:26:13;63.22;;;40.60;;
54679;SDS011;40578;53.178;5.846;2023-02-15T12:28:42;64.30;;;39.05;;
54679;SDS011;40578;53.178;5.846;2023-02-15T12:31:28;65.22;;;40.55;;
54679;SDS011;40578;53.178;5.846;2023-02-15T12:34:02;65.20;;;40.58;;
54679;SDS011;40578;53.178;5.846;2023-02-15T12:36:42;69.53;;;41.92;;
54679;SDS011;40578;53.178;5.846;2023-02-15T12:41:37;60.47;;;37.30;;
54679;SDS011;40578;53.178;5.846;2023-02-15T12:46:55;60.03;;;38.25;;
54679;SDS011;40578;53.178;5.846;2023-02-15T12:51:49;60.42;;;38.40;;
54679;SDS011;40578;53.178;5.846;2023-02-15T12:54:50;62.38;;;39.25;;
54679;SDS011;40578;53.178;5.846;2023-02-15T12:57:26;59.72;;;37.28;;
54679;SDS011;40578;53.178;5.846;2023-02-15T13:00:01;59.92;;;38.45;;
54679;SDS011;40578;53.178;5.846;2023-02-15T13:02:52;57.63;;;35.92;;
54679;SDS011;40578;53.178;5.846;2023-02-15T13:07:49;57.03;;;36.33;;
54679;SDS011;40578;53.178;5.846;2023-02-15T13:10:20;59.20;;;37.92;;
54679;SDS011;40578;53.178;5.846;2023-02-15T13:12:49;53.30;;;34.75;;
54679;SDS011;40578;53.178;5.846;2023-02-15T13:15:38;57.22;;;36.92;;
54679;SDS011;40578;53.178;5.846;2023-02-15T13:18:10;58.25;;;36.83;;
54679;SDS011;40578;53.178;5.846;2023-02-15T13:20:42;57.47;;;36.33;;
54679;SDS011;40578;53.178;5.846;2023-02-15T13:23:31;62.90;;;37.08;;
54679;SDS011;40578;53.178;5.846;2023-02-15T13:25:57;58.63;;;35.55;;
54679;SDS011;40578;53.178;5.846;2023-02-15T13:28:27;53.42;;;35.90;;
54679;SDS011;40578;53.178;5.846;2023-02-15T13:31:08;55.38;;;34.63;;
54679;SDS011;40578;53.178;5.846;2023-02-15T13:33:38;54.47;;;35.13;;
54679;SDS011;40578;53.178;5.846;2023-02-15T13:50:08;53.63;;;33.72;;
54679;SDS011;40578;53.178;5.846;2023-02-15T13:52:56;56.80;;;34.67;;
54679;SDS011;40578;53.178;5.846;2023-02-15T13:58:27;58.83;;;36.55;;
54679;SDS011;40578;53.178;5.846;2023-02-15T14:04:00;53.63;;;34.63;;
54679;SDS011;40578;53.178;5.846;2023-02-15T14:07:01;51.83;;;33.15;;
54679;SDS011;40578;53.178;5.846;2023-02-15T14:10:16;53.30;;;33.67;;
54679;SDS011;40578;53.178;5.846;2023-02-15T14:20:49;53.28;;;32.85;;
54679;SDS011;40578;53.178;5.846;2023-02-15T14:30:00;55.08;;;35.67;;
54679;SDS011;40578;53.178;5.846;2023-02-15T14:32:39;54.22;;;34.05;;
54679;SDS011;40578;53.178;5.846;2023-02-15T14:35:13;51.65;;;31.23;;
54679;SDS011;40578;53.178;5.846;2023-02-15T14:48:54;51.42;;;34.00;;
54679;SDS011;40578;53.178;5.846;2023-02-15T14:54:10;49.58;;;31.35;;
54679;SDS011;40578;53.178;5.846;2023-02-15T14:59:41;58.20;;;35.50;;
54679;SDS011;40578;53.178;5.846;2023-02-15T15:04:40;53.40;;;36.13;;
54679;SDS011;40578;53.178;5.846;2023-02-15T15:07:19;53.20;;;34.57;;
54679;SDS011;40578;53.178;5.846;2023-02-15T15:10:47;55.10;;;34.97;;
54679;SDS011;40578;53.178;5.846;2023-02-15T15:12:43;54.17;;;33.33;;
54679;SDS011;40578;53.178;5.846;2023-02-15T15:15:32;54.47;;;35.60;;
54679;SDS011;40578;53.178;5.846;2023-02-15T15:18:09;52.15;;;33.63;;
54679;SDS011;40578;53.178;5.846;2023-02-15T15:20:55;47.95;;;32.80;;
54679;SDS011;40578;53.178;5.846;2023-02-15T15:25:52;54.17;;;33.97;;
54679;SDS011;40578;53.178;5.846;2023-02-15T15:33:44;56.92;;;35.85;;
54679;SDS011;40578;53.178;5.846;2023-02-15T15:41:40;54.47;;;35.03;;
54679;SDS011;40578;53.178;5.846;2023-02-15T15:50:13;54.60;;;36.45;;
54679;SDS011;40578;53.178;5.846;2023-02-15T15:52:43;58.65;;;35.55;;
54679;SDS011;40578;53.178;5.846;2023-02-15T15:55:22;54.47;;;37.08;;
54679;SDS011;40578;53.178;5.846;2023-02-15T15:57:53;61.42;;;39.28;;
54679;SDS011;40578;53.178;5.846;2023-02-15T16:03:13;61.47;;;38.40;;
54679;SDS011;40578;53.178;5.846;2023-02-15T16:05:50;59.15;;;36.88;;
54679;SDS011;40578;53.178;5.846;2023-02-15T16:10:54;56.72;;;36.35;;
54679;SDS011;40578;53.178;5.846;2023-02-15T16:13:21;60.90;;;36.67;;
54679;SDS011;40578;53.178;5.846;2023-02-15T16:15:50;58.75;;;37.75;;
54679;SDS011;40578;53.178;5.846;2023-02-15T16:18:19;54.58;;;35.05;;
54679;SDS011;40578;53.178;5.846;2023-02-15T16:20:54;56.20;;;35.42;;
54679;SDS011;40578;53.178;5.846;2023-02-15T16:28:33;60.58;;;37.97;;
54679;SDS011;40578;53.178;5.846;2023-02-15T16:31:11;59.77;;;37.70;;
54679;SDS011;40578;53.178;5.846;2023-02-15T16:33:39;57.53;;;37.10;;
54679;SDS011;40578;53.178;5.846;2023-02-15T16:36:11;59.40;;;38.85;;
54679;SDS011;40578;53.178;5.846;2023-02-15T16:41:11;61.43;;;39.50;;
54679;SDS011;40578;53.178;5.846;2023-02-15T16:43:42;67.93;;;40.33;;
54679;SDS011;40578;53.178;5.846;2023-02-15T16:46:11;57.75;;;37.05;;
54679;SDS011;40578;53.178;5.846;2023-02-15T16:48:52;64.38;;;39.60;;
54679;SDS011;40578;53.178;5.846;2023-02-15T16:51:22;64.45;;;39.50;;
54679;SDS011;40578;53.178;5.846;2023-02-15T16:53:55;68.57;;;41.28;;
54679;SDS011;40578;53.178;5.846;2023-02-15T16:56:25;60.85;;;38.88;;
54679;SDS011;40578;53.178;5.846;2023-02-15T16:58:55;68.80;;;40.97;;
54679;SDS011;40578;53.178;5.846;2023-02-15T17:01:23;68.78;;;42.20;;
54679;SDS011;40578;53.178;5.846;2023-02-15T17:04:10;66.50;;;42.47;;
54679;SDS011;40578;53.178;5.846;2023-02-15T17:06:36;66.07;;;42.33;;
54679;SDS011;40578;53.178;5.846;2023-02-15T17:09:04;65.38;;;41.65;;
54679;SDS011;40578;53.178;5.846;2023-02-15T17:11:41;66.25;;;43.10;;
54679;SDS011;40578;53.178;5.846;2023-02-15T17:19:21;73.63;;;43.60;;
54679;SDS011;40578;53.178;5.846;2023-02-15T17:22:03;79.07;;;44.95;;
54679;SDS011;40578;53.178;5.846;2023-02-15T17:24:38;72.72;;;43.75;;
54679;SDS011;40578;53.178;5.846;2023-02-15T17:27:10;76.63;;;44.42;;
54679;SDS011;40578;53.178;5.846;2023-02-15T17:29:46;74.32;;;45.17;;
54679;SDS011;40578;53.178;5.846;2023-02-15T17:32:18;75.13;;;47.55;;
54679;SDS011;40578;53.178;5.846;2023-02-15T17:34:50;75.15;;;46.67;;
54679;SDS011;40578;53.178;5.846;2023-02-15T17:40:14;70.60;;;45.03;;
54679;SDS011;40578;53.178;5.846;2023-02-15T17:42:48;79.38;;;47.67;;
54679;SDS011;40578;53.178;5.846;2023-02-15T17:45:14;73.03;;;47.03;;
54679;SDS011;40578;53.178;5.846;2023-02-15T17:47:40;79.20;;;46.42;;
54679;SDS011;40578;53.178;5.846;2023-02-15T17:50:06;79.50;;;46.95;;
54679;SDS011;40578;53.178;5.846;2023-02-15T17:52:33;78.88;;;46.15;;
54679;SDS011;40578;53.178;5.846;2023-02-15T17:55:01;79.78;;;47.50;;
54679;SDS011;40578;53.178;5.846;2023-02-15T17:57:55;74.95;;;45.47;;
54679;SDS011;40578;53.178;5.846;2023-02-15T18:00:21;79.87;;;49.13;;
54679;SDS011;40578;53.178;5.846;2023-02-15T18:03:07;79.93;;;49.22;;
54679;SDS011;40578;53.178;5.846;2023-02-15T18:05:54;74.90;;;46.15;;
54679;SDS011;40578;53.178;5.846;2023-02-15T18:08:38;84.55;;;49.55;;
54679;SDS011;40578;53.178;5.846;2023-02-15T18:11:23;79.80;;;48.83;;
54679;SDS011;40578;53.178;5.846;2023-02-15T18:14:01;76.85;;;48.28;;
54679;SDS011;40578;53.178;5.846;2023-02-15T18:16:31;80.40;;;48.30;;
54679;SDS011;40578;53.178;5.846;2023-02-15T18:18:59;80.00;;;47.90;;
54679;SDS011;40578;53.178;5.846;2023-02-15T18:23:52;82.63;;;46.63;;